Time;durP1;ratioP1;P1;durP2;ratioP2;P2;SDS_P1;SDS_P2;PMS_P1;PMS_P2;Temp;Humidity;BMP_temperature;BMP_pressure;BME280_temperature;BME280_humidity;BME280_pressure;Samples;Min_cycle;Max_cycle;Signal;HPM_P1;HPM_P2
2021/12/28 00:00:05;;;;;;;2.78;1.58;;;20.50;47.60;;;;;;4993278;28;20042;-65
2021/12/28 00:02:31;;;;;;;2.50;1.40;;;20.50;47.50;;;;;;4993644;28;20047;-65
2021/12/28 00:04:57;;;;;;;3.38;1.60;;;20.40;47.50;;;;;;4992273;28;20053;-65
2021/12/28 00:07:22;;;;;;;3.35;1.60;;;20.40;47.50;;;;;;4994537;28;20058;-65
2021/12/28 00:09:48;;;;;;;3.00;1.55;;;20.40;47.50;;;;;;4993381;28;20057;-65
2021/12/28 00:12:13;;;;;;;3.10;1.80;;;20.40;47.50;;;;;;4993913;28;20046;-65
2021/12/28 00:14:48;;;;;;;3.20;1.70;;;20.40;47.50;;;;;;4993630;28;20044;-65
2021/12/28 00:19:58;;;;;;;2.33;1.33;;;20.40;47.40;;;;;;4992216;28;20050;-65
2021/12/28 00:22:24;;;;;;;3.38;1.55;;;20.30;47.40;;;;;;4994519;28;20042;-65
2021/12/28 00:24:49;;;;;;;1.90;1.35;;;20.30;47.40;;;;;;4992990;28;20042;-65
2021/12/28 00:27:15;;;;;;;3.78;1.77;;;20.30;47.40;;;;;;4993773;28;20042;-65
2021/12/28 00:29:42;;;;;;;2.50;1.60;;;20.30;47.40;;;;;;4993087;28;20050;-65
2021/12/28 00:32:08;;;;;;;3.03;1.70;;;20.30;47.40;;;;;;4993369;28;20104;-65
2021/12/28 00:34:34;;;;;;;2.85;1.50;;;20.30;47.40;;;;;;4993757;28;20486;-65
2021/12/28 00:37:00;;;;;;;3.40;1.73;;;20.30;47.40;;;;;;4992802;28;20089;-64
2021/12/28 00:39:25;;;;;;;3.80;1.90;;;20.20;47.20;;;;;;4992322;28;20066;-65
2021/12/28 00:41:51;;;;;;;3.05;1.58;;;20.20;47.30;;;;;;4992699;28;20042;-65
2021/12/28 00:44:18;;;;;;;3.03;1.92;;;20.20;47.30;;;;;;4992945;28;20046;-65
2021/12/28 00:46:44;;;;;;;2.53;1.30;;;20.20;47.30;;;;;;4992703;28;20500;-65
2021/12/28 00:49:09;;;;;;;2.75;1.50;;;20.20;47.30;;;;;;4992560;28;20129;-65
2021/12/28 00:51:35;;;;;;;2.90;1.40;;;20.20;47.30;;;;;;4994069;28;20066;-65
2021/12/28 00:54:00;;;;;;;1.70;1.33;;;20.20;47.30;;;;;;4992977;28;20050;-65
2021/12/28 00:56:26;;;;;;;2.35;1.50;;;20.20;47.90;;;;;;4993849;28;20086;-65
2021/12/28 00:58:51;;;;;;;3.20;1.60;;;20.20;47.20;;;;;;4992605;28;20050;-64
2021/12/28 01:01:17;;;;;;;2.75;1.50;;;20.20;47.30;;;;;;4991880;28;20057;-65
2021/12/28 01:03:42;;;;;;;3.05;1.60;;;20.20;47.30;;;;;;4993640;28;20042;-65
2021/12/28 01:06:08;;;;;;;2.47;1.42;;;20.20;47.30;;;;;;4993650;28;20159;-65
2021/12/28 01:08:33;;;;;;;2.70;1.50;;;20.10;47.30;;;;;;4991856;28;20097;-65
2021/12/28 01:10:59;;;;;;;2.67;1.60;;;20.10;47.30;;;;;;4993279;28;20462;-65
2021/12/28 01:13:25;;;;;;;2.70;1.52;;;20.10;47.30;;;;;;4992383;28;20043;-65
2021/12/28 01:15:50;;;;;;;3.22;1.42;;;20.10;47.30;;;;;;4992436;28;20046;-65
2021/12/28 01:18:16;;;;;;;3.10;1.60;;;20.10;47.30;;;;;;4992187;28;20047;-65
2021/12/28 01:20:42;;;;;;;2.90;1.67;;;20.10;47.30;;;;;;4991797;28;20073;-65
2021/12/28 01:23:08;;;;;;;2.33;1.63;;;20.10;47.30;;;;;;4991318;28;20069;-65
2021/12/28 01:25:33;;;;;;;2.58;1.55;;;20.10;47.30;;;;;;4992298;28;20133;-65
2021/12/28 01:27:59;;;;;;;2.30;1.38;;;20.10;47.30;;;;;;4993355;28;20046;-65
2021/12/28 01:30:25;;;;;;;2.33;1.50;;;20.00;47.20;;;;;;4991322;28;20144;-65
2021/12/28 01:32:51;;;;;;;2.63;1.40;;;20.00;47.30;;;;;;4993332;28;20061;-65
2021/12/28 01:35:16;;;;;;;2.25;1.35;;;20.00;47.30;;;;;;4992481;28;20051;-65
2021/12/28 01:37:43;;;;;;;2.35;1.55;;;20.00;47.30;;;;;;4992605;28;20157;-65
2021/12/28 01:40:10;;;;;;;2.85;1.55;;;20.00;47.30;;;;;;4992027;28;20049;-65
2021/12/28 01:43:01;;;;;;;2.38;1.50;;;20.00;47.30;;;;;;4993305;28;20069;-65
2021/12/28 01:45:51;;;;;;;2.47;1.60;;;20.00;47.30;;;;;;4992084;28;20054;-65
2021/12/28 01:48:25;;;;;;;3.03;1.50;;;20.00;47.40;;;;;;4993342;28;20046;-65
2021/12/28 01:50:51;;;;;;;2.08;1.40;;;20.00;47.40;;;;;;4991103;28;20081;-65
2021/12/28 01:53:17;;;;;;;1.95;1.30;;;20.00;47.40;;;;;;4993260;28;20042;-65
2021/12/28 01:55:46;;;;;;;2.63;1.45;;;20.00;47.40;;;;;;4992916;28;20568;-65
2021/12/28 01:58:11;;;;;;;2.28;1.30;;;20.00;47.40;;;;;;4991437;28;20185;-65
2021/12/28 02:00:37;;;;;;;2.10;1.48;;;20.00;47.40;;;;;;4993369;28;20121;-65
2021/12/28 02:03:10;;;;;;;2.17;1.50;;;20.00;47.50;;;;;;4994177;28;20053;-65
2021/12/28 02:05:36;;;;;;;2.85;1.63;;;20.00;47.50;;;;;;4994773;28;20057;-65
2021/12/28 02:08:01;;;;;;;2.35;1.58;;;20.00;47.50;;;;;;4996537;28;20093;-65
2021/12/28 02:10:27;;;;;;;2.75;1.40;;;20.00;47.50;;;;;;4995701;28;20046;-65
2021/12/28 02:12:52;;;;;;;2.95;1.85;;;20.00;47.40;;;;;;4994447;28;20502;-65
2021/12/28 02:15:18;;;;;;;2.42;1.20;;;20.00;47.40;;;;;;4995468;28;20046;-63
2021/12/28 02:17:43;;;;;;;1.73;1.20;;;20.00;47.50;;;;;;4995138;28;20039;-63
2021/12/28 02:20:14;;;;;;;3.28;1.50;;;20.00;47.40;;;;;;4994703;28;20056;-64
2021/12/28 02:22:40;;;;;;;3.25;1.70;;;20.00;47.40;;;;;;4979097;28;20128;-64
2021/12/28 02:25:06;;;;;;;2.30;1.48;;;20.10;47.50;;;;;;4994909;28;20045;-64
2021/12/28 02:27:32;;;;;;;2.58;1.40;;;20.00;47.40;;;;;;4995755;28;20062;-64
2021/12/28 02:29:57;;;;;;;2.50;1.40;;;20.00;47.40;;;;;;4995010;28;20047;-64
2021/12/28 02:32:25;;;;;;;2.28;1.33;;;20.10;47.50;;;;;;4995066;28;20046;-64
2021/12/28 02:34:51;;;;;;;3.20;1.50;;;20.10;47.50;;;;;;4994921;28;20509;-64
2021/12/28 02:37:16;;;;;;;2.00;1.40;;;20.10;47.50;;;;;;4996671;28;20053;-64
2021/12/28 02:39:42;;;;;;;2.22;1.40;;;20.10;47.50;;;;;;4994408;28;20050;-64
2021/12/28 02:42:07;;;;;;;2.50;1.40;;;20.10;47.50;;;;;;4995453;28;20042;-64
2021/12/28 02:44:33;;;;;;;2.83;1.42;;;20.10;47.50;;;;;;4996612;28;20053;-64
2021/12/28 02:46:58;;;;;;;1.85;1.33;;;20.10;47.60;;;;;;4994255;28;20069;-64
2021/12/28 02:49:24;;;;;;;2.92;1.50;;;20.10;47.50;;;;;;4995096;28;20077;-65
2021/12/28 02:51:49;;;;;;;2.03;1.20;;;20.10;47.60;;;;;;4994538;28;20046;-64
2021/12/28 02:54:15;;;;;;;2.05;1.42;;;20.10;47.50;;;;;;4995453;28;20039;-64
2021/12/28 02:56:40;;;;;;;2.45;1.38;;;20.10;47.50;;;;;;4995964;28;20038;-64
2021/12/28 02:59:06;;;;;;;3.50;1.58;;;20.10;47.50;;;;;;4995049;28;20137;-65
2021/12/28 03:01:31;;;;;;;1.55;1.17;;;20.20;47.60;;;;;;4982531;28;20450;-65
2021/12/28 03:04:03;;;;;;;3.47;1.40;;;20.10;47.50;;;;;;4974840;28;20047;-64
2021/12/28 03:06:29;;;;;;;2.10;1.40;;;20.20;47.60;;;;;;4972250;28;20145;-65
2021/12/28 03:08:56;;;;;;;2.20;1.00;;;20.20;47.60;;;;;;4973217;28;20197;-64
2021/12/28 03:11:23;;;;;;;1.58;1.33;;;20.20;47.60;;;;;;4976412;28;20061;-65
2021/12/28 03:13:50;;;;;;;3.15;1.50;;;20.20;47.60;;;;;;4975570;28;20039;-65
2021/12/28 03:16:17;;;;;;;2.67;1.40;;;20.20;47.60;;;;;;4975424;28;20061;-64
2021/12/28 03:18:42;;;;;;;1.67;1.20;;;20.20;47.60;;;;;;4975914;28;20297;-64
2021/12/28 03:21:08;;;;;;;1.65;1.27;;;20.20;47.60;;;;;;4975149;28;20450;-65
2021/12/28 03:23:34;;;;;;;2.85;1.52;;;20.20;47.60;;;;;;4974236;28;20043;-65
2021/12/28 03:26:00;;;;;;;2.42;1.30;;;20.20;47.60;;;;;;4976049;28;20590;-65
2021/12/28 03:28:27;;;;;;;1.73;1.35;;;20.20;47.60;;;;;;4974277;28;20051;-65
2021/12/28 03:30:54;;;;;;;2.13;1.60;;;20.20;47.60;;;;;;4976045;28;20054;-65
2021/12/28 03:33:20;;;;;;;2.33;1.50;;;20.20;47.60;;;;;;4975919;28;20501;-65
2021/12/28 03:35:46;;;;;;;3.90;1.50;;;20.20;47.60;;;;;;4974830;28;20046;-65
2021/12/28 03:38:11;;;;;;;2.28;1.40;;;20.20;47.60;;;;;;4976028;28;20043;-65
2021/12/28 03:40:37;;;;;;;1.38;1.10;;;20.20;47.60;;;;;;4976140;28;20570;-65
2021/12/28 03:43:03;;;;;;;2.00;1.23;;;20.20;47.60;;;;;;4975119;28;20402;-65
2021/12/28 03:45:28;;;;;;;2.50;1.40;;;20.20;47.60;;;;;;4976066;28;20042;-65
2021/12/28 03:47:54;;;;;;;2.13;1.48;;;20.20;47.60;;;;;;4975547;28;20090;-65
2021/12/28 03:50:19;;;;;;;3.45;1.60;;;20.30;47.70;;;;;;4974788;28;20129;-65
2021/12/28 03:52:45;;;;;;;2.55;1.50;;;20.30;47.70;;;;;;4974013;28;20047;-65
2021/12/28 03:55:11;;;;;;;2.75;1.30;;;20.30;47.70;;;;;;4974418;28;20054;-65
2021/12/28 03:57:39;;;;;;;1.55;1.13;;;20.30;47.70;;;;;;4973825;28;20125;-65
2021/12/28 04:00:06;;;;;;;2.50;1.63;;;20.30;47.60;;;;;;4975153;28;20475;-65
2021/12/28 04:02:32;;;;;;;2.55;1.40;;;20.30;47.70;;;;;;4974045;28;20825;-65
2021/12/28 04:04:57;;;;;;;2.00;1.20;;;20.30;47.70;;;;;;4974565;28;20129;-64
2021/12/28 04:07:23;;;;;;;1.67;1.10;;;20.30;47.70;;;;;;4973583;28;20113;-65
2021/12/28 04:12:18;;;;;;;;;;;20.30;47.60;;;;;;4973733;28;20113;-65
2021/12/28 04:14:43;;;;;;;2.53;1.33;;;20.30;47.60;;;;;;4973924;28;19926;-65
2021/12/28 04:17:08;;;;;;;2.25;1.50;;;20.30;47.60;;;;;;4974180;28;20082;-65
2021/12/28 04:19:34;;;;;;;2.70;1.50;;;20.30;47.60;;;;;;4973329;28;20046;-64
2021/12/28 04:22:00;;;;;;;2.53;1.50;;;20.30;47.70;;;;;;4973561;28;20057;-65
2021/12/28 04:24:25;;;;;;;3.40;1.60;;;20.40;47.70;;;;;;4974875;28;20051;-65
2021/12/28 04:26:51;;;;;;;1.95;1.30;;;20.30;47.60;;;;;;4973510;28;20046;-65
2021/12/28 04:29:16;;;;;;;2.53;1.40;;;20.40;47.70;;;;;;4975292;28;20402;-65
2021/12/28 04:31:42;;;;;;;2.60;1.45;;;20.40;47.70;;;;;;4972486;28;20402;-64
2021/12/28 04:34:07;;;;;;;2.65;1.42;;;20.30;47.60;;;;;;4975104;28;20214;-65
2021/12/28 04:36:33;;;;;;;2.63;1.27;;;20.40;47.70;;;;;;4974726;28;20566;-65
2021/12/28 04:38:58;;;;;;;2.33;1.65;;;20.40;47.70;;;;;;4972570;28;20087;-65
2021/12/28 04:41:24;;;;;;;2.45;1.23;;;20.40;47.70;;;;;;4973770;28;20446;-65
2021/12/28 04:43:49;;;;;;;2.40;1.27;;;20.40;47.70;;;;;;4974257;28;20085;-65
2021/12/28 04:46:15;;;;;;;2.03;1.40;;;20.40;47.70;;;;;;4972704;28;20047;-65
2021/12/28 04:48:41;;;;;;;2.63;1.70;;;20.40;47.70;;;;;;4973348;28;20043;-65
2021/12/28 04:51:06;;;;;;;3.03;1.45;;;20.40;47.70;;;;;;4974477;28;20391;-65
2021/12/28 04:53:32;;;;;;;2.53;1.30;;;20.40;47.70;;;;;;4973766;28;20102;-65
2021/12/28 04:55:57;;;;;;;2.55;1.70;;;20.40;47.70;;;;;;4973228;28;20085;-65
2021/12/28 04:58:23;;;;;;;3.00;1.45;;;20.40;47.70;;;;;;4974433;28;20447;-65
2021/12/28 05:00:49;;;;;;;2.85;1.70;;;20.40;47.70;;;;;;4973899;28;20042;-65
2021/12/28 05:03:14;;;;;;;2.67;1.40;;;20.40;47.70;;;;;;4990277;28;20053;-64
2021/12/28 05:05:43;;;;;;;3.30;1.63;;;20.40;47.60;;;;;;5011235;28;20062;-65
2021/12/28 05:08:09;;;;;;;;;;;20.40;47.70;;;;;;5012492;28;20383;-66
2021/12/28 05:10:35;;;;;;;2.50;1.70;;;20.40;47.70;;;;;;5012066;28;19921;-65
2021/12/28 05:13:00;;;;;;;1.83;1.20;;;20.40;47.70;;;;;;5012994;28;20402;-65
2021/12/28 05:15:26;;;;;;;2.33;1.42;;;20.40;47.70;;;;;;5012664;28;20042;-65
2021/12/28 05:17:51;;;;;;;2.22;1.60;;;20.40;47.70;;;;;;5011568;28;20038;-65
2021/12/28 05:20:17;;;;;;;2.15;1.52;;;20.40;47.70;;;;;;5013330;28;20037;-65
2021/12/28 05:22:42;;;;;;;2.83;1.52;;;20.40;47.70;;;;;;5010739;28;20096;-65
2021/12/28 05:25:08;;;;;;;2.30;1.30;;;20.50;47.70;;;;;;5013201;28;20037;-65
2021/12/28 05:27:34;;;;;;;1.85;1.30;;;20.40;47.70;;;;;;5012141;28;20045;-65
2021/12/28 05:30:00;;;;;;;2.35;1.40;;;20.50;47.70;;;;;;5011121;28;20497;-65
2021/12/28 05:32:25;;;;;;;2.53;1.40;;;20.50;47.70;;;;;;5011900;28;20049;-65
2021/12/28 05:34:51;;;;;;;2.33;1.60;;;20.50;47.70;;;;;;5011997;28;20089;-65
2021/12/28 05:37:16;;;;;;;2.85;1.73;;;20.50;47.70;;;;;;5010968;28;20081;-65
2021/12/28 05:39:42;;;;;;;2.42;1.42;;;20.50;47.60;;;;;;5012651;28;20053;-65
2021/12/28 05:42:07;;;;;;;2.20;1.50;;;20.50;47.70;;;;;;5012314;28;20077;-65
2021/12/28 05:44:33;;;;;;;2.05;1.40;;;20.50;47.60;;;;;;5011718;28;20136;-65
2021/12/28 05:46:58;;;;;;;2.53;1.58;;;20.50;47.60;;;;;;5011388;28;20580;-65
2021/12/28 05:49:24;;;;;;;2.83;1.58;;;20.50;47.70;;;;;;5011371;28;20055;-65
2021/12/28 05:51:49;;;;;;;2.10;1.38;;;20.50;47.70;;;;;;5011152;28;20077;-65
2021/12/28 05:54:15;;;;;;;2.38;1.50;;;20.50;47.60;;;;;;5012702;28;20066;-65
2021/12/28 05:56:41;;;;;;;2.00;1.20;;;20.50;47.60;;;;;;5010735;28;20417;-65
2021/12/28 05:59:07;;;;;;;3.20;1.83;;;20.50;47.60;;;;;;5011694;28;20129;-65
2021/12/28 06:01:33;;;;;;;2.42;1.58;;;20.50;47.60;;;;;;5012462;28;20057;-64
2021/12/28 06:03:58;;;;;;;2.08;1.27;;;20.50;47.60;;;;;;5010449;28;20042;-65
2021/12/28 06:06:24;;;;;;;2.78;1.60;;;20.50;47.50;;;;;;5012228;28;20060;-65
2021/12/28 06:08:51;;;;;;;3.03;1.60;;;20.50;47.50;;;;;;5010996;28;20053;-64
2021/12/28 06:11:17;;;;;;;2.83;1.70;;;20.60;47.60;;;;;;5012056;28;20086;-65
2021/12/28 06:13:42;;;;;;;2.70;1.55;;;20.60;47.60;;;;;;5012216;28;20088;-65
2021/12/28 06:16:09;;;;;;;2.47;1.63;;;20.60;47.60;;;;;;5012632;28;20103;-65
2021/12/28 06:18:34;;;;;;;3.45;1.60;;;20.60;47.60;;;;;;5010622;28;20062;-65
2021/12/28 06:21:00;;;;;;;2.28;1.45;;;20.60;47.60;;;;;;5012048;28;20046;-64
2021/12/28 06:23:25;;;;;;;3.92;1.70;;;20.50;47.50;;;;;;5011418;28;20486;-65
2021/12/28 06:25:51;;;;;;;2.40;1.63;;;20.60;47.60;;;;;;5011555;28;20048;-64
2021/12/28 06:28:16;;;;;;;2.40;1.48;;;20.60;47.60;;;;;;5011096;28;20041;-65
2021/12/28 06:30:42;;;;;;;2.92;1.67;;;20.60;47.60;;;;;;5012250;28;20054;-64
2021/12/28 06:33:07;;;;;;;2.80;1.30;;;20.60;47.60;;;;;;5010264;28;20046;-64
2021/12/28 06:35:33;;;;;;;3.33;1.50;;;20.60;47.60;;;;;;5012347;28;20045;-64
2021/12/28 06:37:59;;;;;;;2.50;1.30;;;20.60;47.60;;;;;;5012226;28;20045;-64
2021/12/28 06:40:24;;;;;;;2.67;1.50;;;20.60;47.60;;;;;;5010423;28;20096;-64
2021/12/28 06:42:50;;;;;;;2.58;1.30;;;20.60;47.60;;;;;;5012098;28;20445;-64
2021/12/28 06:45:15;;;;;;;3.45;1.35;;;20.60;47.60;;;;;;5011549;28;20478;-64
2021/12/28 06:47:41;;;;;;;2.47;1.40;;;20.60;47.50;;;;;;5010832;28;20133;-64
2021/12/28 06:50:06;;;;;;;2.63;1.45;;;20.60;47.50;;;;;;5013754;28;20038;-64
2021/12/28 06:52:33;;;;;;;2.13;1.35;;;20.60;47.50;;;;;;5014064;28;20046;-64
2021/12/28 06:54:59;;;;;;;3.33;1.55;;;20.60;47.60;;;;;;5015566;28;20449;-64
2021/12/28 06:57:24;;;;;;;2.03;1.30;;;20.60;47.50;;;;;;5014295;28;20045;-64
2021/12/28 06:59:50;;;;;;;2.25;1.20;;;20.60;47.50;;;;;;5013336;28;20100;-64
2021/12/28 07:02:16;;;;;;;2.88;1.42;;;20.60;47.60;;;;;;5014321;28;20529;-64
2021/12/28 07:04:42;;;;;;;2.50;1.45;;;20.60;47.60;;;;;;5015082;28;20520;-64
2021/12/28 07:07:07;;;;;;;2.95;1.58;;;20.60;47.60;;;;;;5014643;28;20081;-64
2021/12/28 07:09:33;;;;;;;2.50;1.25;;;20.60;47.60;;;;;;5015279;28;20512;-64
2021/12/28 07:11:59;;;;;;;2.20;1.40;;;20.70;47.70;;;;;;5013737;28;20103;-64
2021/12/28 07:14:24;;;;;;;2.55;1.23;;;20.70;47.70;;;;;;5014672;28;20121;-64
2021/12/28 07:16:50;;;;;;;1.83;1.10;;;20.70;47.70;;;;;;5015287;28;20524;-64
2021/12/28 07:19:15;;;;;;;2.47;1.35;;;20.70;47.60;;;;;;5013992;28;20049;-64
2021/12/28 07:21:41;;;;;;;3.60;1.30;;;20.70;47.70;;;;;;5014439;28;20485;-64
2021/12/28 07:24:08;;;;;;;2.95;1.25;;;20.60;47.60;;;;;;5013997;28;20612;-64
2021/12/28 07:26:33;;;;;;;2.25;1.25;;;20.70;47.70;;;;;;5014922;28;20053;-64
2021/12/28 07:28:59;;;;;;;1.95;1.23;;;20.70;47.60;;;;;;5012771;28;20038;-64
2021/12/28 07:31:24;;;;;;;2.38;1.10;;;20.70;47.60;;;;;;5007415;28;20121;-63
2021/12/28 07:33:50;;;;;;;3.17;1.15;;;20.70;47.60;;;;;;4994934;28;20042;-63
2021/12/28 07:36:15;;;;;;;4.05;1.42;;;20.70;47.60;;;;;;4994675;28;20044;-62
2021/12/28 07:38:41;;;;;;;2.90;1.30;;;20.70;47.60;;;;;;4992864;28;20049;-63
2021/12/28 07:41:07;;;;;;;5.43;1.23;;;20.70;47.60;;;;;;4995006;28;20086;-62
2021/12/28 07:43:32;;;;;;;3.20;1.48;;;20.70;47.60;;;;;;4993226;28;20042;-63
2021/12/28 07:45:58;;;;;;;2.85;1.10;;;20.70;47.60;;;;;;4993984;28;20213;-63
2021/12/28 07:48:23;;;;;;;2.40;1.10;;;20.70;47.60;;;;;;4995196;28;20624;-63
2021/12/28 07:50:49;;;;;;;4.03;1.10;;;20.70;47.60;;;;;;4992742;28;20042;-63
2021/12/28 07:53:14;;;;;;;3.15;1.10;;;20.70;47.70;;;;;;4994942;28;20034;-63
2021/12/28 07:55:40;;;;;;;4.05;1.20;;;20.70;47.60;;;;;;4993204;28;20371;-63
2021/12/28 07:58:05;;;;;;;3.72;1.33;;;20.70;47.60;;;;;;4994923;28;20080;-64
2021/12/28 08:00:31;;;;;;;3.25;1.15;;;20.70;47.70;;;;;;4993882;28;20108;-62
2021/12/28 08:02:56;;;;;;;3.22;1.08;;;20.80;47.80;;;;;;4991507;28;20046;-65
2021/12/28 08:05:22;;;;;;;4.40;1.20;;;20.70;47.90;;;;;;4994815;28;20045;-64
2021/12/28 08:07:48;;;;;;;3.08;1.10;;;20.70;48.70;;;;;;4993419;28;20058;-64
2021/12/28 08:10:14;;;;;;;2.90;1.48;;;20.80;48.10;;;;;;4992519;28;20405;-65
2021/12/28 08:12:40;;;;;;;2.28;1.00;;;20.80;48.20;;;;;;4992926;28;20038;-64
2021/12/28 08:15:06;;;;;;;2.55;1.17;;;20.80;48.30;;;;;;4993209;28;20046;-64
2021/12/28 08:17:32;;;;;;;3.15;1.20;;;20.80;48.50;;;;;;4993174;28;20046;-64
2021/12/28 08:19:57;;;;;;;2.45;1.13;;;20.80;48.50;;;;;;4993018;28;20047;-66
2021/12/28 08:22:23;;;;;;;3.78;1.20;;;20.80;48.60;;;;;;4993854;28;20046;-64
2021/12/28 08:24:48;;;;;;;2.40;1.00;;;20.80;48.70;;;;;;4992967;28;20042;-64
2021/12/28 08:27:14;;;;;;;2.00;1.13;;;20.80;48.60;;;;;;4994421;28;20043;-63
2021/12/28 08:29:39;;;;;;;2.88;0.90;;;20.80;48.70;;;;;;4993377;28;20046;-64
2021/12/28 08:32:05;;;;;;;2.25;1.00;;;20.80;49.40;;;;;;4993277;28;20502;-64
2021/12/28 08:34:31;;;;;;;3.60;0.90;;;20.80;48.70;;;;;;4992981;28;20180;-65
2021/12/28 08:36:56;;;;;;;3.47;1.02;;;20.80;48.70;;;;;;4992655;28;20490;-64
2021/12/28 08:39:22;;;;;;;2.13;0.88;;;20.80;48.80;;;;;;4993214;28;20065;-65
2021/12/28 08:41:47;;;;;;;6.57;1.33;;;20.80;48.80;;;;;;4994111;28;20046;-64
2021/12/28 08:44:13;;;;;;;2.70;1.13;;;20.80;48.90;;;;;;4993406;28;20134;-64
2021/12/28 08:46:39;;;;;;;2.50;1.00;;;20.90;49.00;;;;;;4992802;28;20054;-64
2021/12/28 08:49:05;;;;;;;3.92;1.08;;;20.90;49.00;;;;;;4992311;28;20045;-65
2021/12/28 08:51:31;;;;;;;3.70;1.10;;;20.90;49.00;;;;;;4993531;28;20046;-64
2021/12/28 08:53:57;;;;;;;1.90;0.90;;;20.90;49.10;;;;;;4992565;28;20156;-64
2021/12/28 08:56:23;;;;;;;4.40;1.10;;;20.90;49.10;;;;;;4993526;28;20129;-64
2021/12/28 08:58:48;;;;;;;2.65;0.95;;;20.90;49.10;;;;;;4992975;28;20177;-64
2021/12/28 09:01:14;;;;;;;3.72;1.10;;;20.90;49.00;;;;;;4991833;28;20050;-63
2021/12/28 09:03:39;;;;;;;4.63;1.13;;;20.90;49.10;;;;;;4992198;28;20050;-63
2021/12/28 09:06:05;;;;;;;2.38;0.75;;;20.90;49.00;;;;;;4991918;28;20410;-62
2021/12/28 09:08:31;;;;;;;2.58;1.02;;;20.90;49.00;;;;;;4992864;28;20418;-65
2021/12/28 09:10:57;;;;;;;3.30;0.88;;;20.90;48.90;;;;;;4993541;28;20046;-64
2021/12/28 09:13:22;;;;;;;3.42;1.00;;;20.90;49.00;;;;;;4991414;28;20048;-64
2021/12/28 09:15:48;;;;;;;3.08;1.27;;;20.90;49.10;;;;;;4993503;28;20043;-63
2021/12/28 09:18:14;;;;;;;3.92;0.90;;;20.90;49.20;;;;;;4992672;28;20053;-64
2021/12/28 09:20:39;;;;;;;3.00;0.77;;;20.90;49.30;;;;;;4992899;28;20077;-64
2021/12/28 09:23:06;;;;;;;2.85;0.73;;;20.90;49.40;;;;;;4992959;28;20042;-65
2021/12/28 09:25:32;;;;;;;3.55;1.00;;;21.00;49.60;;;;;;4993305;28;20057;-65
2021/12/28 09:27:57;;;;;;;3.03;1.00;;;21.00;49.70;;;;;;4992123;28;20055;-65
2021/12/28 09:30:23;;;;;;;3.70;1.00;;;21.00;49.80;;;;;;4992100;28;20051;-64
2021/12/28 09:32:49;;;;;;;3.53;1.10;;;21.00;49.90;;;;;;4990768;28;20050;-64
2021/12/28 09:35:15;;;;;;;2.28;0.95;;;21.00;49.80;;;;;;4990117;28;20034;-64
2021/12/28 09:37:40;;;;;;;2.65;0.80;;;21.00;49.80;;;;;;4993025;28;20081;-63
2021/12/28 09:40:08;;;;;;;3.05;0.93;;;21.00;49.70;;;;;;4993445;28;20065;-64
2021/12/28 09:42:33;;;;;;;3.13;1.00;;;21.00;49.60;;;;;;4992343;28;20515;-64
2021/12/28 09:44:59;;;;;;;2.08;0.95;;;21.00;49.60;;;;;;4991812;28;20345;-64
2021/12/28 09:47:24;;;;;;;2.28;1.00;;;21.10;49.60;;;;;;4993412;28;20073;-64
2021/12/28 09:49:50;;;;;;;2.47;0.80;;;21.00;49.50;;;;;;4992370;28;20085;-64
2021/12/28 09:52:16;;;;;;;3.28;1.08;;;21.10;49.60;;;;;;4993240;28;20129;-64
2021/12/28 09:54:41;;;;;;;2.05;1.00;;;21.00;49.50;;;;;;4992947;28;20112;-63
2021/12/28 09:57:07;;;;;;;3.08;1.00;;;21.10;49.60;;;;;;4959174;28;20054;-62
2021/12/28 09:59:33;;;;;;;2.70;1.35;;;21.10;49.50;;;;;;4993186;28;20043;-63
2021/12/28 10:01:59;;;;;;;3.45;0.85;;;21.00;49.40;;;;;;4991264;28;20049;-63
2021/12/28 10:04:25;;;;;;;3.42;1.02;;;21.00;49.50;;;;;;4992432;28;20100;-63
2021/12/28 10:06:51;;;;;;;2.80;0.77;;;21.10;49.80;;;;;;4992683;28;20062;-63
2021/12/28 10:09:18;;;;;;;2.65;0.70;;;21.10;49.90;;;;;;4990859;28;20061;-63
2021/12/28 10:11:48;;;;;;;4.63;1.10;;;21.10;50.00;;;;;;4991463;28;20473;-63
2021/12/28 10:14:27;;;;;;;3.20;0.93;;;21.10;50.00;;;;;;4991943;28;20073;-62
2021/12/28 10:16:59;;;;;;;2.85;0.80;;;21.10;50.00;;;;;;4990512;28;20391;-65
2021/12/28 10:19:39;;;;;;;2.95;1.00;;;21.10;50.00;;;;;;4992276;28;20053;-64
2021/12/28 10:22:30;;;;;;;3.47;0.90;;;21.10;50.50;;;;;;4992503;28;20509;-65
2021/12/28 10:25:01;;;;;;;4.03;1.02;;;21.10;49.80;;;;;;4993356;28;20046;-64
2021/12/28 10:27:28;;;;;;;4.32;1.00;;;21.10;49.90;;;;;;4996677;28;20043;-64
2021/12/28 10:29:54;;;;;;;3.80;0.90;;;21.20;50.20;;;;;;4994834;28;20042;-64
2021/12/28 10:32:23;;;;;;;3.67;0.88;;;21.20;50.30;;;;;;4994826;28;20069;-63
2021/12/28 10:35:01;;;;;;;2.50;1.10;;;21.20;50.40;;;;;;4995040;28;20046;-64
2021/12/28 10:37:30;;;;;;;2.97;1.13;;;21.20;50.40;;;;;;4995046;28;20061;-64
2021/12/28 10:39:58;;;;;;;4.45;1.60;;;21.20;50.50;;;;;;4994793;28;20046;-63
2021/12/28 10:42:44;;;;;;;7.18;1.30;;;21.20;50.60;;;;;;4996314;28;20046;-64
2021/12/28 10:45:15;;;;;;;5.30;1.38;;;21.20;50.60;;;;;;4994769;28;20073;-62
2021/12/28 10:47:41;;;;;;;5.05;1.60;;;21.20;50.60;;;;;;4996134;28;20410;-62
2021/12/28 10:50:28;;;;;;;6.20;2.08;;;21.20;50.50;;;;;;4996121;28;20042;-62
2021/12/28 10:53:36;;;;;;;5.30;1.60;;;21.20;51.10;;;;;;4993766;28;20050;-64
2021/12/28 10:56:04;;;;;;;5.47;1.35;;;21.20;50.90;;;;;;4977990;28;20050;-64
2021/12/28 10:58:35;;;;;;;5.93;2.00;;;21.20;50.90;;;;;;4991049;28;20390;-64
2021/12/28 11:01:05;;;;;;;6.15;1.38;;;21.30;51.00;;;;;;4995856;28;20084;-64
2021/12/28 11:03:34;;;;;;;4.68;1.38;;;21.30;51.10;;;;;;4994671;28;20046;-64
2021/12/28 11:06:10;;;;;;;5.20;1.60;;;21.30;51.10;;;;;;4993653;28;20058;-64
2021/12/28 11:08:36;;;;;;;4.20;1.20;;;21.30;51.10;;;;;;4994839;28;20096;-63
2021/12/28 11:11:12;;;;;;;4.28;1.30;;;21.30;51.10;;;;;;4994511;28;20411;-64
2021/12/28 11:13:38;;;;;;;5.35;1.70;;;21.30;51.20;;;;;;4994869;28;20534;-64
2021/12/28 11:16:05;;;;;;;4.78;1.40;;;21.30;51.10;;;;;;4994506;28;20125;-64
2021/12/28 11:18:36;;;;;;;5.15;1.70;;;21.30;51.10;;;;;;4978326;28;20050;-64
2021/12/28 11:21:19;;;;;;;4.80;1.48;;;21.30;51.10;;;;;;4994980;28;20156;-64
2021/12/28 11:23:46;;;;;;;4.90;1.40;;;21.30;51.20;;;;;;4993907;28;20086;-64
2021/12/28 11:26:13;;;;;;;5.00;1.42;;;21.30;51.20;;;;;;4995504;28;20042;-64
2021/12/28 11:28:40;;;;;;;5.95;1.27;;;21.30;51.10;;;;;;4993758;28;20045;-63
2021/12/28 11:31:12;;;;;;;4.65;1.40;;;21.30;51.10;;;;;;4995365;28;20518;-64
2021/12/28 11:34:07;;;;;;;4.25;1.40;;;21.30;51.10;;;;;;4993146;28;20487;-64
2021/12/28 11:36:37;;;;;;;6.05;1.38;;;21.30;51.00;;;;;;4993121;28;20132;-64
2021/12/28 11:39:05;;;;;;;4.95;1.25;;;21.30;51.00;;;;;;4993646;28;20046;-64
2021/12/28 11:41:31;;;;;;;4.57;1.40;;;21.30;50.90;;;;;;4994746;28;20053;-64
2021/12/28 11:43:57;;;;;;;7.43;1.60;;;21.30;50.80;;;;;;4993699;28;20394;-64
2021/12/28 11:46:23;;;;;;;4.05;1.30;;;21.30;50.80;;;;;;4995314;28;20129;-64
2021/12/28 11:48:48;;;;;;;4.30;1.10;;;21.20;50.70;;;;;;4992718;28;20042;-64
2021/12/28 11:51:14;;;;;;;5.90;1.50;;;21.20;50.70;;;;;;4995102;28;20050;-63
2021/12/28 11:53:42;;;;;;;3.25;1.40;;;21.20;50.70;;;;;;4994812;28;20049;-64
2021/12/28 11:56:08;;;;;;;;;;;21.20;50.70;;;;;;4977688;28;20042;-63
2021/12/28 11:58:57;;;;;;;5.38;1.30;;;21.20;50.60;;;;;;4991818;28;20393;-65
2021/12/28 12:01:52;;;;;;;6.28;1.20;;;21.20;50.70;;;;;;4993720;28;20045;-65
2021/12/28 12:04:32;;;;;;;5.53;1.48;;;21.10;50.60;;;;;;4994000;28;20441;-63
2021/12/28 12:07:17;;;;;;;5.65;1.35;;;21.10;50.90;;;;;;4994274;28;20047;-64
2021/12/28 12:09:55;;;;;;;5.85;1.65;;;21.10;50.90;;;;;;4993332;28;20129;-64
2021/12/28 12:12:23;;;;;;;3.70;1.45;;;21.10;51.00;;;;;;4993374;28;20053;-64
2021/12/28 12:14:52;;;;;;;;;;;21.10;51.00;;;;;;4993382;28;20449;-64
2021/12/28 12:17:45;;;;;;;5.57;1.20;;;21.10;51.00;;;;;;4992601;28;19928;-63
2021/12/28 12:20:17;;;;;;;5.65;1.30;;;21.10;51.00;;;;;;4993246;28;20043;-64
2021/12/28 12:22:51;;;;;;;2.40;1.10;;;21.10;51.10;;;;;;4994226;28;20524;-64
2021/12/28 12:25:51;;;;;;;4.60;1.13;;;21.10;51.20;;;;;;4993057;28;20038;-65
2021/12/28 12:28:31;;;;;;;4.20;1.20;;;21.00;51.20;;;;;;4994359;28;20049;-64
2021/12/28 12:30:57;;;;;;;3.67;1.17;;;21.10;51.20;;;;;;4993556;28;20050;-64
2021/12/28 12:33:23;;;;;;;4.18;0.90;;;21.10;51.20;;;;;;4994581;28;20046;-64
2021/12/28 12:35:54;;;;;;;3.55;1.20;;;21.10;51.20;;;;;;4976282;28;20107;-64
2021/12/28 12:38:25;;;;;;;3.50;1.33;;;21.10;51.20;;;;;;4993551;28;20042;-64
2021/12/28 12:40:58;;;;;;;2.97;1.10;;;21.10;51.30;;;;;;4993745;28;20053;-64
2021/12/28 12:43:38;;;;;;;3.63;0.90;;;21.10;51.40;;;;;;4994166;28;20054;-64
2021/12/28 12:46:30;;;;;;;3.75;1.10;;;21.10;52.10;;;;;;4991575;28;20051;-66
2021/12/28 12:48:57;;;;;;;3.90;1.20;;;21.10;51.20;;;;;;4993887;28;20504;-66
2021/12/28 12:51:28;;;;;;;4.13;1.23;;;21.10;51.20;;;;;;4993186;28;20050;-66
2021/12/28 12:54:08;;;;;;;4.30;1.13;;;21.10;51.10;;;;;;4993741;28;20038;-64